createdAt,value
2023-05-12T00:00:42.213Z,96.69
2023-05-12T00:01:42.183Z,96.90
2023-05-12T00:02:42.475Z,96.80
2023-05-12T00:03:42.249Z,97.00
2023-05-12T00:04:42.283Z,97.00
2023-05-12T00:05:42.130Z,96.90
2023-05-12T00:06:42.117Z,96.80
2023-05-12T00:07:42.105Z,96.69
2023-05-12T00:08:42.081Z,96.48
2023-05-12T00:09:42.107Z,96.48
2023-05-12T00:10:42.070Z,96.39
2023-05-12T00:11:42.074Z,96.28
2023-05-12T00:12:42.021Z,96.28
2023-05-12T00:13:42.035Z,96.18
2023-05-12T00:14:42.020Z,96.28
2023-05-12T00:15:41.982Z,96.48
2023-05-12T00:16:42.007Z,96.69
2023-05-12T00:17:42.033Z,96.69
2023-05-12T00:18:41.965Z,96.80
2023-05-12T00:19:41.958Z,96.80
2023-05-12T00:20:41.923Z,96.80
2023-05-12T00:21:42.192Z,96.69
2023-05-12T00:22:41.934Z,96.69
2023-05-12T00:23:41.888Z,96.69
2023-05-12T00:24:41.885Z,96.55
2023-05-12T00:25:41.860Z,96.55
2023-05-12T00:26:41.873Z,96.55
2023-05-12T00:27:41.849Z,96.65
2023-05-12T00:28:41.811Z,96.65
2023-05-12T00:29:41.805Z,96.75
2023-05-12T00:30:41.792Z,96.95
2023-05-12T00:31:41.856Z,96.95
2023-05-12T00:32:41.833Z,97.00
2023-05-12T00:33:41.736Z,96.90
2023-05-12T00:34:41.770Z,96.80
2023-05-12T00:35:41.735Z,96.69
2023-05-12T00:36:41.754Z,96.65
2023-05-12T00:37:41.802Z,96.65
2023-05-12T00:38:41.690Z,96.69
2023-05-12T00:39:41.702Z,96.55
2023-05-12T00:40:41.669Z,96.55
2023-05-12T00:41:41.675Z,96.75
2023-05-12T00:42:41.631Z,96.95
2023-05-12T00:43:41.611Z,96.95
2023-05-12T00:44:41.623Z,97.06
2023-05-12T00:45:41.671Z,96.75
2023-05-12T00:46:41.572Z,96.44
2023-05-12T00:47:41.607Z,96.23
2023-05-12T00:48:41.580Z,96.39
2023-05-12T00:49:41.541Z,96.48
2023-05-12T00:50:41.528Z,96.59
2023-05-12T00:51:41.528Z,96.80
2023-05-12T00:52:41.508Z,97.10
2023-05-12T00:53:49.026Z,97.20
2023-05-12T00:54:41.477Z,97.20
2023-05-12T00:55:41.496Z,97.10
2023-05-12T00:56:41.482Z,97.20
2023-05-12T00:57:41.484Z,97.20
2023-05-12T00:58:41.413Z,97.10
2023-05-12T00:59:41.404Z,96.90
2023-05-12T01:00:41.431Z,96.90
2023-05-12T01:01:41.494Z,96.80
2023-05-12T01:02:41.479Z,96.80
2023-05-12T01:03:41.389Z,96.80
2023-05-12T01:04:41.389Z,96.69
2023-05-12T01:05:41.329Z,96.80
2023-05-12T01:06:41.315Z,96.80
2023-05-12T01:07:41.315Z,96.90
2023-05-12T01:08:41.286Z,97.00
2023-05-12T01:09:41.299Z,97.25
2023-05-12T01:10:41.277Z,97.56
2023-05-12T01:11:41.290Z,97.56
2023-05-12T01:12:41.230Z,97.77
2023-05-12T01:13:41.326Z,97.87
2023-05-12T01:14:41.212Z,97.97
2023-05-12T01:15:41.196Z,97.97
2023-05-12T01:16:41.407Z,97.97
2023-05-12T01:17:41.224Z,98.07
2023-05-12T01:18:41.168Z,97.97
2023-05-12T01:19:41.257Z,97.87
2023-05-12T01:20:41.139Z,97.87
2023-05-12T01:21:41.154Z,97.77
2023-05-12T01:22:41.114Z,97.66
2023-05-12T01:23:41.089Z,97.77
2023-05-12T01:24:41.120Z,97.77
2023-05-12T01:25:41.072Z,97.66
2023-05-12T01:26:41.181Z,97.77
2023-05-12T01:27:41.223Z,97.87
2023-05-12T01:28:41.058Z,97.97
2023-05-12T01:29:41.005Z,97.97
2023-05-12T01:30:40.995Z,97.97
2023-05-12T01:31:41.129Z,97.97
2023-05-12T01:32:41.007Z,97.97
2023-05-12T01:33:40.942Z,97.87
2023-05-12T01:34:40.932Z,97.66
2023-05-12T01:35:40.940Z,97.45
2023-05-12T01:36:40.928Z,97.45
2023-05-12T01:37:41.025Z,97.56
2023-05-12T01:38:40.889Z,97.56
2023-05-12T01:39:40.884Z,97.45
2023-05-12T01:40:40.862Z,97.56
2023-05-12T01:41:40.844Z,97.66
2023-05-12T01:42:40.881Z,97.56
2023-05-12T01:43:40.816Z,97.45
2023-05-12T01:44:40.805Z,97.45
2023-05-12T01:45:40.791Z,97.36
2023-05-12T01:46:40.868Z,97.45
2023-05-12T01:47:40.866Z,97.45
2023-05-12T01:48:40.753Z,97.45
2023-05-12T01:49:40.730Z,97.36
2023-05-12T01:50:40.752Z,97.15
2023-05-12T01:51:40.727Z,97.05
2023-05-12T01:52:40.742Z,96.94
2023-05-12T01:53:40.684Z,96.84
2023-05-12T01:54:40.689Z,96.84
2023-05-12T01:55:40.649Z,96.94
2023-05-12T01:56:40.645Z,96.94
2023-05-12T01:57:40.662Z,97.05
2023-05-12T01:58:40.640Z,97.05
2023-05-12T01:59:40.597Z,97.05
2023-05-12T02:00:40.581Z,97.15
2023-05-12T02:01:40.667Z,97.05
2023-05-12T02:02:42.933Z,97.15
2023-05-12T02:03:40.738Z,97.25
2023-05-12T02:04:40.534Z,97.25
2023-05-12T02:05:40.622Z,97.36
2023-05-12T02:06:40.518Z,97.25
2023-05-12T02:07:40.515Z,97.15
2023-05-12T02:08:40.506Z,97.05
2023-05-12T02:09:40.454Z,96.94
2023-05-12T02:10:40.450Z,97.05
2023-05-12T02:11:40.522Z,97.05
2023-05-12T02:12:40.461Z,96.94
2023-05-12T02:13:40.426Z,96.84
2023-05-12T02:14:40.426Z,96.84
2023-05-12T02:15:40.392Z,96.73
2023-05-12T02:16:40.396Z,96.78
2023-05-12T02:17:40.383Z,96.78
2023-05-12T02:18:40.351Z,96.78
2023-05-12T02:19:40.332Z,96.68
2023-05-12T02:20:40.349Z,96.68
2023-05-12T02:21:40.319Z,96.68
2023-05-12T02:22:40.289Z,96.58
2023-05-12T02:23:40.310Z,96.47
2023-05-12T02:24:40.277Z,96.37
2023-05-12T02:25:40.237Z,96.27
2023-05-12T02:26:40.239Z,96.27
2023-05-12T02:27:40.248Z,96.17
2023-05-12T02:28:40.224Z,96.17
2023-05-12T02:29:40.210Z,96.17
2023-05-12T02:30:40.267Z,96.17
2023-05-12T02:31:40.193Z,96.17
2023-05-12T02:32:40.239Z,96.06
2023-05-12T02:33:40.162Z,96.06
2023-05-12T02:34:40.139Z,96.00
2023-05-12T02:35:40.122Z,95.90
2023-05-12T02:36:40.114Z,95.90
2023-05-12T02:37:54.386Z,96.11
2023-05-12T02:38:40.091Z,96.21
2023-05-12T02:39:40.068Z,96.11
2023-05-12T02:40:40.087Z,96.00
2023-05-12T02:41:40.086Z,95.90
2023-05-12T02:42:40.120Z,95.80
2023-05-12T02:43:40.023Z,95.70
2023-05-12T02:44:40.153Z,95.84
2023-05-12T02:45:40.088Z,95.95
2023-05-12T02:46:40.004Z,96.25
2023-05-12T02:47:40.102Z,96.25
2023-05-12T02:48:39.952Z,96.36
2023-05-12T02:49:39.932Z,96.36
2023-05-12T02:50:39.954Z,96.25
2023-05-12T02:51:39.919Z,96.41
2023-05-12T02:52:39.892Z,96.30
2023-05-12T02:53:39.891Z,96.30
2023-05-12T02:54:39.882Z,96.20
2023-05-12T02:55:39.939Z,96.20
2023-05-12T02:56:39.858Z,96.30
2023-05-12T02:57:39.832Z,96.41
2023-05-12T02:58:39.855Z,96.50
2023-05-12T02:59:39.793Z,96.50
2023-05-12T03:00:39.795Z,96.61
2023-05-12T03:01:39.812Z,96.61
2023-05-12T03:02:39.879Z,96.61
2023-05-12T03:03:39.877Z,96.71
2023-05-12T03:04:39.737Z,96.81
2023-05-12T03:05:39.772Z,96.81
2023-05-12T03:06:39.724Z,96.81
2023-05-12T03:07:39.713Z,96.61
2023-05-12T03:08:39.809Z,96.71
2023-05-12T03:09:39.697Z,96.71
2023-05-12T03:10:39.687Z,96.75
2023-05-12T03:11:39.660Z,96.96
2023-05-12T03:12:39.655Z,96.96
2023-05-12T03:13:39.620Z,97.06
2023-05-12T03:14:39.917Z,97.17
2023-05-12T03:15:39.614Z,97.38
2023-05-12T03:16:39.650Z,97.48
2023-05-12T03:17:39.597Z,97.43
2023-05-12T03:18:39.619Z,97.53
2023-05-12T03:19:39.541Z,97.53
2023-05-12T03:20:39.558Z,97.53
2023-05-12T03:21:39.514Z,97.53
2023-05-12T03:22:39.510Z,97.43
2023-05-12T03:23:39.526Z,97.33
2023-05-12T03:24:39.512Z,97.23
2023-05-12T03:25:39.549Z,97.33
2023-05-12T03:26:39.450Z,97.02
2023-05-12T03:27:39.451Z,96.92
2023-05-12T03:28:39.435Z,96.92
2023-05-12T03:31:07.325Z,96.92
2023-05-12T03:31:12.719Z,97.02
2023-05-12T03:32:12.666Z,97.13
2023-05-12T03:33:12.643Z,97.02
2023-05-12T03:34:12.627Z,97.23
2023-05-12T03:35:12.636Z,97.23
2023-05-12T03:36:12.604Z,97.33
2023-05-12T03:37:12.724Z,97.23
2023-05-12T03:38:12.591Z,97.23
2023-05-12T03:39:12.572Z,97.02
2023-05-12T03:40:12.580Z,97.13
2023-05-12T03:41:12.541Z,97.33
2023-05-12T03:42:12.517Z,97.53
2023-05-12T03:43:12.529Z,97.43
2023-05-12T03:44:12.490Z,97.33
2023-05-12T03:45:12.517Z,97.33
2023-05-12T03:46:12.556Z,97.13
2023-05-12T03:47:12.637Z,96.81
2023-05-12T03:48:12.508Z,97.02
2023-05-12T03:49:12.439Z,97.13
2023-05-12T03:50:12.409Z,97.23
2023-05-12T03:51:12.398Z,97.23
2023-05-12T03:52:12.412Z,97.43
2023-05-12T03:53:12.379Z,97.43
2023-05-12T03:54:12.361Z,97.53
2023-05-12T03:55:12.378Z,97.43
2023-05-12T03:56:12.324Z,97.33
2023-05-12T03:57:12.360Z,97.33
2023-05-12T03:58:12.313Z,97.43
2023-05-12T03:59:12.307Z,97.23
2023-05-12T04:00:12.301Z,97.23
2023-05-12T04:01:12.288Z,97.13
2023-05-12T04:02:12.297Z,97.02
2023-05-12T04:03:12.330Z,96.61
2023-05-12T04:04:12.255Z,96.50
2023-05-12T04:05:12.211Z,96.71
2023-05-12T04:06:12.217Z,97.13
2023-05-12T04:07:12.221Z,97.23
2023-05-12T04:08:12.184Z,97.23
2023-05-12T04:09:12.164Z,97.13
2023-05-12T04:10:12.198Z,97.13
2023-05-12T04:11:12.156Z,97.13
2023-05-12T04:12:12.131Z,97.23
2023-05-12T04:13:12.121Z,97.23
2023-05-12T04:14:12.126Z,97.33
2023-05-12T04:15:12.232Z,97.60
2023-05-12T04:16:12.216Z,97.60
2023-05-12T04:17:12.090Z,97.64
2023-05-12T04:18:12.055Z,97.49
2023-05-12T04:19:12.108Z,97.60
2023-05-12T04:20:12.025Z,97.60
2023-05-12T04:21:12.046Z,97.80
2023-05-12T04:22:11.988Z,97.69
2023-05-12T04:23:11.989Z,97.39
2023-05-12T04:24:11.978Z,97.28
2023-05-12T04:25:12.002Z,97.18
2023-05-12T04:26:11.949Z,97.08
2023-05-12T04:27:11.934Z,97.18
2023-05-12T04:28:12.343Z,97.18
2023-05-12T04:29:11.900Z,97.18
2023-05-12T04:30:11.890Z,97.18
2023-05-12T04:31:11.872Z,97.39
2023-05-12T04:32:11.950Z,97.39
2023-05-12T04:33:11.921Z,97.60
2023-05-12T04:34:11.881Z,97.80
2023-05-12T04:35:11.818Z,97.90
2023-05-12T04:36:11.808Z,97.90
2023-05-12T04:37:11.804Z,97.90
2023-05-12T04:38:11.789Z,97.90
2023-05-12T04:39:11.785Z,97.80
2023-05-12T04:40:11.812Z,97.80
2023-05-12T04:41:11.752Z,97.80
2023-05-12T04:42:11.735Z,97.80
2023-05-12T04:44:00.008Z,97.80
2023-05-12T04:44:11.740Z,97.90
2023-05-12T04:45:11.720Z,97.90
2023-05-12T04:46:11.707Z,97.90
2023-05-12T04:47:11.695Z,97.80
2023-05-12T04:48:11.667Z,97.75
2023-05-12T04:49:11.657Z,97.80
2023-05-12T04:50:11.703Z,97.65
2023-05-12T04:51:11.654Z,97.55
2023-05-12T04:52:11.597Z,97.55
2023-05-12T04:53:11.606Z,97.55
2023-05-12T04:54:11.571Z,97.65
2023-05-12T04:55:11.588Z,97.75
2023-05-12T04:56:11.574Z,97.96
2023-05-12T04:57:11.537Z,98.16
2023-05-12T04:58:11.509Z,98.16
2023-05-12T04:59:11.510Z,98.06
2023-05-12T05:00:11.526Z,97.96
2023-05-12T05:01:11.562Z,97.65
2023-05-12T05:02:11.533Z,97.24
2023-05-12T05:03:11.697Z,96.93
2023-05-12T05:04:11.437Z,95.49
2023-05-12T05:05:11.432Z,95.18
2023-05-12T05:06:11.402Z,95.34
2023-05-12T05:07:11.417Z,95.65
2023-05-12T05:08:11.388Z,95.55
2023-05-12T05:09:11.379Z,95.55
2023-05-12T05:10:11.380Z,95.75
2023-05-12T05:11:11.374Z,95.96
2023-05-12T05:12:11.336Z,96.27
2023-05-12T05:13:11.335Z,96.58
2023-05-12T05:14:11.301Z,96.64
2023-05-12T05:15:11.293Z,96.22
2023-05-12T05:16:11.331Z,96.22
2023-05-12T05:17:11.262Z,95.81
2023-05-12T05:18:11.293Z,95.71
2023-05-12T05:19:20.049Z,95.61
2023-05-12T05:20:12.233Z,95.71
2023-05-12T05:21:11.428Z,96.02
2023-05-12T05:22:11.197Z,96.02
2023-05-12T05:23:11.187Z,96.12
2023-05-12T05:24:11.206Z,96.22
2023-05-12T05:25:11.221Z,96.02
2023-05-12T05:26:11.141Z,95.92
2023-05-12T05:27:11.129Z,96.02
2023-05-12T05:28:11.121Z,95.87
2023-05-12T05:29:11.126Z,96.08
2023-05-12T05:30:11.088Z,95.77
2023-05-12T05:31:11.107Z,95.46
2023-05-12T05:32:11.086Z,95.05
2023-05-12T05:33:11.040Z,94.54
2023-05-12T05:34:11.101Z,94.54
2023-05-12T05:35:11.033Z,94.02
2023-05-12T05:36:11.021Z,94.23
2023-05-12T05:37:11.035Z,94.54
2023-05-12T05:38:10.996Z,94.80
2023-05-12T05:39:10.983Z,94.74
2023-05-12T05:40:10.964Z,94.80
2023-05-12T05:41:10.936Z,94.90
2023-05-12T05:42:10.950Z,94.80
2023-05-12T05:43:10.939Z,94.29
2023-05-12T05:44:10.918Z,93.87
2023-05-12T05:45:10.920Z,93.77
2023-05-12T05:46:10.875Z,93.98
2023-05-12T05:47:11.149Z,93.87
2023-05-12T05:48:10.859Z,93.87
2023-05-12T05:49:10.830Z,94.08
2023-05-12T05:50:10.831Z,94.18
2023-05-12T05:51:10.825Z,94.39
2023-05-12T05:52:10.820Z,94.29
2023-05-12T05:53:10.782Z,93.87
2023-05-12T05:54:10.770Z,93.77
2023-05-12T05:55:10.757Z,93.67
2023-05-12T05:56:10.752Z,93.93
2023-05-12T05:57:10.728Z,93.93
2023-05-12T05:58:10.712Z,94.14
2023-05-12T05:59:10.692Z,94.04
2023-05-12T06:00:10.696Z,93.63
2023-05-12T06:01:10.703Z,94.04
2023-05-12T06:02:10.691Z,94.10
2023-05-12T06:03:10.731Z,93.68
2023-05-12T06:04:10.681Z,93.17
2023-05-12T06:05:10.647Z,92.66
2023-05-12T06:06:10.622Z,92.76
2023-05-12T06:07:10.612Z,92.72
2023-05-12T06:08:10.580Z,92.21
2023-05-12T06:09:10.552Z,92.41
2023-05-12T06:10:10.567Z,92.51
2023-05-12T06:11:10.528Z,92.47
2023-05-12T06:12:10.557Z,91.65
2023-05-12T06:13:10.489Z,91.35
2023-05-12T06:14:10.500Z,91.86
2023-05-12T06:15:10.485Z,91.55
2023-05-12T06:16:10.491Z,91.55
2023-05-12T06:17:10.471Z,91.55
2023-05-12T06:18:10.443Z,91.35
2023-05-12T06:19:10.521Z,89.90
2023-05-12T06:20:10.409Z,89.90
2023-05-12T06:21:10.447Z,90.22
2023-05-12T06:22:10.410Z,90.73
2023-05-12T06:23:10.407Z,91.14
2023-05-12T06:24:10.363Z,91.03
2023-05-12T06:25:10.357Z,90.07
2023-05-12T06:26:10.335Z,89.50
2023-05-12T06:27:10.344Z,89.56
2023-05-12T06:28:10.336Z,90.79
2023-05-12T06:29:10.305Z,90.69
2023-05-12T06:30:10.287Z,89.97
2023-05-12T06:31:10.257Z,89.66
2023-05-12T06:32:10.268Z,90.48
2023-05-12T06:33:10.272Z,90.48
2023-05-12T06:34:10.214Z,90.28
2023-05-12T06:35:10.206Z,90.64
2023-05-12T06:36:10.209Z,90.54
2023-05-12T06:37:10.180Z,90.34
2023-05-12T06:38:10.193Z,90.13
2023-05-12T06:39:10.188Z,89.92
2023-05-12T06:40:10.144Z,89.92
2023-05-12T06:41:10.169Z,88.70
2023-05-12T06:42:10.112Z,89.11
2023-05-12T06:43:10.120Z,89.47
2023-05-12T06:44:10.102Z,89.17
2023-05-12T06:45:10.082Z,89.58
2023-05-12T06:46:10.110Z,90.09
2023-05-12T06:47:10.060Z,87.84
2023-05-12T06:48:10.103Z,85.69
2023-05-12T06:49:10.065Z,86.30
2023-05-12T06:50:10.028Z,86.40
2023-05-12T06:51:09.999Z,86.51
2023-05-12T06:52:09.986Z,88.00
2023-05-12T06:53:10.000Z,88.10
2023-05-12T06:54:09.986Z,87.59
2023-05-12T06:55:09.980Z,88.41
2023-05-12T06:56:09.942Z,88.78
2023-05-12T06:57:09.934Z,86.73
2023-05-12T06:58:09.935Z,85.20
2023-05-12T06:59:09.909Z,84.17
2023-05-12T07:00:09.887Z,83.36
2023-05-12T07:01:09.876Z,86.43
2023-05-12T07:02:09.867Z,84.89
2023-05-12T07:03:10.123Z,85.16
2023-05-12T07:04:09.885Z,83.11
2023-05-12T07:05:09.811Z,83.52
2023-05-12T07:06:09.915Z,84.65
2023-05-12T07:07:09.776Z,83.73
2023-05-12T07:08:09.771Z,85.36
2023-05-12T07:09:09.759Z,85.16
2023-05-12T07:10:09.779Z,85.73
2023-05-12T07:11:09.722Z,85.02
2023-05-12T07:12:09.724Z,84.00
2023-05-12T07:13:09.686Z,84.50
2023-05-12T07:14:09.706Z,85.32
2023-05-12T07:15:09.741Z,82.77
2023-05-12T07:16:09.722Z,83.07
2023-05-12T07:17:09.674Z,82.67
2023-05-12T07:18:09.671Z,83.18
2023-05-12T07:19:09.680Z,82.36
2023-05-12T07:20:09.648Z,81.44
2023-05-12T07:21:09.611Z,80.21
2023-05-12T07:22:09.582Z,81.24
2023-05-12T07:23:09.660Z,80.83
2023-05-12T07:24:09.555Z,81.03
2023-05-12T07:25:09.564Z,81.54
2023-05-12T07:26:09.581Z,82.46
2023-05-12T07:27:09.543Z,81.65
2023-05-12T07:28:09.496Z,81.95
2023-05-12T07:29:10.480Z,82.32
2023-05-12T07:30:09.498Z,83.95
2023-05-12T07:31:09.519Z,82.32
2023-05-12T07:32:09.451Z,82.63
2023-05-12T07:33:09.458Z,83.04
2023-05-12T07:34:09.424Z,82.53
2023-05-12T07:35:09.407Z,82.28
2023-05-12T07:36:09.426Z,82.49
2023-05-12T07:37:09.415Z,81.87
2023-05-12T07:38:09.354Z,80.44
2023-05-12T07:39:09.369Z,79.52
2023-05-12T07:40:09.344Z,79.83
2023-05-12T07:41:23.466Z,80.34
2023-05-12T07:42:09.319Z,80.24
2023-05-12T07:43:09.292Z,79.52
2023-05-12T07:44:09.296Z,80.04
2023-05-12T07:45:09.283Z,80.61
2023-05-12T07:46:09.289Z,80.71
2023-05-12T07:47:09.302Z,81.84
2023-05-12T07:48:09.260Z,80.00
2023-05-12T07:49:09.338Z,79.69
2023-05-12T07:50:09.242Z,80.61
2023-05-12T07:51:09.196Z,78.16
2023-05-12T07:52:09.182Z,76.93
2023-05-12T07:53:09.169Z,78.43
2023-05-12T07:54:09.157Z,78.53
2023-05-12T07:55:09.171Z,78.74
2023-05-12T07:56:09.126Z,79.86
2023-05-12T07:57:09.129Z,75.68
2023-05-12T07:58:09.127Z,77.72
2023-05-12T07:59:09.117Z,80.84
2023-05-12T08:00:09.088Z,81.04
2023-05-12T08:01:09.106Z,81.04
2023-05-12T08:02:09.060Z,79.89
2023-05-12T08:03:09.158Z,78.87
2023-05-12T08:04:09.120Z,77.85
2023-05-12T08:05:09.005Z,78.36
2023-05-12T08:06:09.017Z,78.05
2023-05-12T08:07:09.009Z,78.36
2023-05-12T08:08:09.001Z,78.26
2023-05-12T08:09:08.968Z,77.61
2023-05-12T08:10:08.967Z,76.93
2023-05-12T08:11:08.912Z,78.05
2023-05-12T08:12:08.907Z,78.02
2023-05-12T08:13:08.935Z,76.79
2023-05-12T08:14:08.898Z,75.71
2023-05-12T08:15:08.883Z,76.01
2023-05-12T08:16:08.860Z,74.99
2023-05-12T08:17:08.873Z,75.40
2023-05-12T08:18:08.942Z,75.71
2023-05-12T08:19:08.895Z,75.30
2023-05-12T08:20:08.812Z,76.39
2023-05-12T08:21:08.809Z,77.61
2023-05-12T08:22:08.775Z,75.47
2023-05-12T08:23:08.762Z,76.90
2023-05-12T08:24:08.743Z,77.10
2023-05-12T08:25:10.925Z,76.59
2023-05-12T08:26:08.756Z,76.39
2023-05-12T08:27:08.723Z,75.74
2023-05-12T08:28:08.702Z,75.64
2023-05-12T08:29:08.850Z,75.95
2023-05-12T08:30:08.738Z,76.96
2023-05-12T08:31:08.720Z,77.98
2023-05-12T08:32:08.676Z,79.27
2023-05-12T08:33:08.705Z,76.42
2023-05-12T08:34:11.116Z,76.92
2023-05-12T08:35:08.610Z,77.64
2023-05-12T08:36:08.604Z,76.89
2023-05-12T08:37:08.604Z,76.89
2023-05-12T08:38:08.564Z,75.37
2023-05-12T08:39:08.584Z,76.18
2023-05-12T08:40:08.541Z,76.68
2023-05-12T08:41:08.673Z,77.50
2023-05-12T08:42:08.517Z,78.11
2023-05-12T08:43:08.506Z,78.21
2023-05-12T08:44:08.519Z,78.58
2023-05-12T08:45:08.493Z,80.21
2023-05-12T08:46:08.528Z,78.68
2023-05-12T08:47:08.481Z,76.82
2023-05-12T08:48:39.012Z,75.80
2023-05-12T08:49:08.435Z,74.99
2023-05-12T08:50:08.407Z,75.09
2023-05-12T08:51:08.387Z,73.26
2023-05-12T08:52:08.364Z,72.96
2023-05-12T08:53:08.352Z,73.67
2023-05-12T08:54:08.370Z,74.38
2023-05-12T08:55:08.354Z,75.19
2023-05-12T08:57:09.713Z,73.97
2023-05-12T08:58:09.687Z,73.87
2023-05-12T08:59:08.275Z,74.28
2023-05-12T09:00:08.273Z,73.36
2023-05-12T09:01:08.307Z,72.75
2023-05-12T09:02:08.268Z,73.50
2023-05-12T09:03:08.248Z,72.69
2023-05-12T09:04:08.275Z,73.70
2023-05-12T09:05:08.257Z,72.38
2023-05-12T09:06:08.199Z,71.77
2023-05-12T09:07:08.192Z,71.67
2023-05-12T09:08:08.175Z,71.67
2023-05-12T09:09:08.168Z,70.75
2023-05-12T09:10:08.144Z,71.64
2023-05-12T09:11:08.296Z,72.17
2023-05-12T09:12:08.114Z,73.26
2023-05-12T09:13:08.109Z,72.55
2023-05-12T09:14:08.086Z,73.26
2023-05-12T09:15:08.091Z,72.96
2023-05-12T09:16:08.161Z,73.26
2023-05-12T09:17:08.160Z,74.07
2023-05-12T09:18:08.067Z,72.85
2023-05-12T09:19:08.117Z,74.58
2023-05-12T09:20:11.328Z,74.48
2023-05-12T09:21:08.016Z,74.68
2023-05-12T09:22:07.982Z,73.77
2023-05-12T09:23:07.952Z,73.87
2023-05-12T09:24:07.977Z,74.18
2023-05-12T09:25:07.956Z,74.88
2023-05-12T09:26:07.937Z,74.58
2023-05-12T09:27:07.938Z,74.58
2023-05-12T09:28:07.932Z,73.97
2023-05-12T09:29:07.866Z,74.48
2023-05-12T09:30:07.864Z,73.57
2023-05-12T09:31:07.875Z,74.48
2023-05-12T09:32:07.988Z,74.79
2023-05-12T09:33:07.927Z,74.07
2023-05-12T09:34:07.815Z,74.48
2023-05-12T09:35:07.837Z,75.09
2023-05-12T09:36:07.796Z,75.60
2023-05-12T09:37:07.800Z,76.01
2023-05-12T09:38:07.765Z,76.41
2023-05-12T09:39:07.782Z,75.19
2023-05-12T09:40:07.763Z,76.01
2023-05-12T09:41:07.742Z,77.33
2023-05-12T09:42:07.702Z,76.68
2023-05-12T09:43:07.725Z,74.75
2023-05-12T09:44:07.681Z,74.34
2023-05-12T09:45:07.703Z,74.24
2023-05-12T09:46:38.310Z,74.95
2023-05-12T09:47:07.666Z,76.07
2023-05-12T09:48:07.685Z,75.05
2023-05-12T09:49:07.648Z,75.87
2023-05-12T09:50:07.629Z,75.76
2023-05-12T09:51:07.589Z,74.04
2023-05-12T09:52:07.567Z,75.05
2023-05-12T09:53:07.575Z,75.67
2023-05-12T09:54:07.974Z,74.44
2023-05-12T09:55:07.541Z,73.33
2023-05-12T09:56:07.547Z,74.24
2023-05-12T09:57:07.535Z,74.85
2023-05-12T09:58:07.518Z,75.26
2023-05-12T09:59:07.483Z,76.58
2023-05-12T10:00:16.848Z,77.05
2023-05-12T10:01:21.813Z,76.54
2023-05-12T10:02:07.650Z,75.73
2023-05-12T10:03:07.467Z,75.22
2023-05-12T10:04:07.469Z,75.39
2023-05-12T10:05:38.018Z,75.49
2023-05-12T10:06:08.058Z,75.19
2023-05-12T10:07:07.544Z,75.29
2023-05-12T10:08:07.369Z,74.78
2023-05-12T10:09:07.346Z,74.07
2023-05-12T10:10:07.364Z,74.68
2023-05-12T10:11:07.329Z,75.09
2023-05-12T10:12:07.363Z,75.49
2023-05-12T10:13:07.289Z,75.29
2023-05-12T10:14:07.336Z,74.68
2023-05-12T10:15:07.308Z,73.66
2023-05-12T10:16:07.248Z,74.38
2023-05-12T10:17:07.318Z,74.07
2023-05-12T10:18:07.298Z,74.98
2023-05-12T10:19:07.238Z,74.98
2023-05-12T10:20:07.229Z,75.59
2023-05-12T10:21:07.195Z,74.78
2023-05-12T10:22:07.163Z,75.39
2023-05-12T10:23:07.239Z,74.78
2023-05-12T10:24:07.200Z,74.88
2023-05-12T10:25:07.235Z,74.38
2023-05-12T10:26:07.121Z,74.27
2023-05-12T10:27:07.150Z,74.48
2023-05-12T10:28:07.095Z,74.98
2023-05-12T10:29:07.083Z,75.09
2023-05-12T10:30:07.074Z,75.59
2023-05-12T10:31:07.098Z,74.38
2023-05-12T10:32:07.057Z,74.95
2023-05-12T10:33:07.022Z,74.74
2023-05-12T10:34:07.013Z,73.83
2023-05-12T10:35:07.004Z,73.43
2023-05-12T10:36:06.991Z,74.24
2023-05-12T10:37:07.013Z,74.07
2023-05-12T10:38:06.949Z,74.38
2023-05-12T10:39:07.005Z,74.44
2023-05-12T10:40:06.967Z,73.93
2023-05-12T10:41:06.913Z,74.65
2023-05-12T10:42:06.906Z,74.85
2023-05-12T10:43:06.894Z,74.85
2023-05-12T10:44:06.891Z,74.54
2023-05-12T10:45:06.881Z,74.54
2023-05-12T10:46:06.847Z,74.14
2023-05-12T10:47:06.833Z,74.14
2023-05-12T10:48:06.918Z,74.14
2023-05-12T10:49:06.810Z,75.15
2023-05-12T10:50:06.836Z,74.14
2023-05-12T10:51:06.800Z,74.74
2023-05-12T10:52:06.789Z,74.85
2023-05-12T10:53:08.153Z,74.74
2023-05-12T10:54:07.486Z,73.83
2023-05-12T10:55:06.762Z,73.43
2023-05-12T10:56:06.921Z,74.14
2023-05-12T10:57:06.948Z,74.34
2023-05-12T10:58:06.883Z,74.44
2023-05-12T10:59:06.890Z,74.51
2023-05-12T11:00:06.957Z,73.90
2023-05-12T11:01:07.204Z,73.63
2023-05-12T11:02:07.038Z,73.53
2023-05-12T11:03:10.196Z,73.73
2023-05-12T11:04:06.818Z,74.14
2023-05-12T11:05:07.103Z,73.93
2023-05-12T11:06:07.026Z,74.65
2023-05-12T11:07:07.938Z,74.14
2023-05-12T11:08:07.101Z,74.24
2023-05-12T11:09:06.909Z,74.27
2023-05-12T11:10:07.839Z,74.58
2023-05-12T11:11:06.623Z,74.07
2023-05-12T11:12:06.840Z,74.17
2023-05-12T11:13:06.489Z,74.07
2023-05-12T11:14:06.518Z,75.29
2023-05-12T11:15:06.721Z,74.17
2023-05-12T11:16:06.513Z,73.66
2023-05-12T11:17:06.435Z,73.77
2023-05-12T11:18:06.485Z,74.38
2023-05-12T11:19:06.564Z,74.68
2023-05-12T11:20:06.391Z,75.49
2023-05-12T11:21:06.383Z,75.76
2023-05-12T11:22:06.362Z,75.96
2023-05-12T11:23:06.473Z,75.96
2023-05-12T11:24:06.361Z,75.96
2023-05-12T11:25:06.446Z,75.46
2023-05-12T11:26:06.326Z,75.12
2023-05-12T11:27:06.336Z,74.91
2023-05-12T11:28:06.289Z,74.51
2023-05-12T11:29:06.286Z,73.90
2023-05-12T11:30:06.298Z,74.10
2023-05-12T11:31:06.273Z,74.30
2023-05-12T11:32:06.268Z,73.22
2023-05-12T11:33:06.275Z,73.63
2023-05-12T11:34:12.634Z,73.73
2023-05-12T11:35:06.280Z,74.14
2023-05-12T11:36:06.223Z,74.54
2023-05-12T11:37:06.183Z,74.34
2023-05-12T11:38:06.181Z,73.73
2023-05-12T11:39:06.132Z,74.95
2023-05-12T11:40:06.150Z,74.34
2023-05-12T11:41:06.153Z,74.34
2023-05-12T11:42:12.991Z,74.14
2023-05-12T11:43:06.099Z,74.04
2023-05-12T11:44:06.927Z,73.53
2023-05-12T11:45:06.091Z,75.19
2023-05-12T11:46:06.149Z,74.54
2023-05-12T11:47:06.063Z,74.38
2023-05-12T11:48:06.034Z,73.97
2023-05-12T11:49:06.011Z,73.97
2023-05-12T11:50:06.006Z,74.58
2023-05-12T11:51:06.007Z,74.78
2023-05-12T11:52:05.963Z,74.68
2023-05-12T11:53:05.960Z,74.07
2023-05-12T11:54:05.943Z,74.07
2023-05-12T11:55:06.202Z,73.77
2023-05-12T11:56:05.914Z,73.77
2023-05-12T11:57:05.911Z,73.66
2023-05-12T11:58:05.898Z,73.66
2023-05-12T11:59:05.877Z,73.66
2023-05-12T12:00:05.902Z,74.07
2023-05-12T12:01:05.851Z,73.87
2023-05-12T12:02:05.864Z,73.57
2023-05-12T12:03:05.901Z,73.97
2023-05-12T12:04:05.882Z,73.97
2023-05-12T12:05:07.866Z,73.66
2023-05-12T12:06:05.794Z,74.58
2023-05-12T12:07:05.766Z,74.48
2023-05-12T12:08:05.786Z,74.98
2023-05-12T12:09:05.744Z,73.16
2023-05-12T12:10:05.738Z,73.57
2023-05-12T12:11:05.745Z,73.57
2023-05-12T12:12:05.718Z,72.55
2023-05-12T12:13:05.679Z,73.77
2023-05-12T12:14:05.698Z,73.57
2023-05-12T12:15:05.679Z,74.17
2023-05-12T12:16:05.713Z,74.58
2023-05-12T12:17:05.664Z,75.19
2023-05-12T12:18:05.718Z,74.41
2023-05-12T12:19:05.697Z,75.63
2023-05-12T12:20:05.606Z,74.62
2023-05-12T12:21:05.616Z,74.71
2023-05-12T12:22:05.577Z,75.19
2023-05-12T12:23:05.556Z,74.98
2023-05-12T12:24:05.564Z,75.90
2023-05-12T12:25:05.541Z,76.00
2023-05-12T12:26:05.597Z,75.09
2023-05-12T12:27:05.525Z,74.98
2023-05-12T12:28:05.493Z,74.88
2023-05-12T12:29:05.488Z,75.19
2023-05-12T12:30:05.499Z,75.70
2023-05-12T12:31:05.479Z,76.31
2023-05-12T12:32:05.458Z,76.91
2023-05-12T12:33:05.483Z,75.79
2023-05-12T12:34:05.427Z,75.59
2023-05-12T12:35:05.417Z,75.79
2023-05-12T12:36:05.387Z,75.49
2023-05-12T12:37:05.371Z,75.59
2023-05-12T12:38:05.417Z,74.98
2023-05-12T12:39:05.335Z,75.09
2023-05-12T12:40:05.369Z,75.09
2023-05-12T12:41:05.353Z,75.19
2023-05-12T12:42:05.291Z,74.98
2023-05-12T12:43:05.345Z,75.59
2023-05-12T12:44:05.298Z,74.78
2023-05-12T12:45:05.264Z,74.68
2023-05-12T12:46:05.247Z,75.79
2023-05-12T12:48:33.023Z,75.79
2023-05-12T12:48:38.363Z,74.17
2023-05-12T12:49:38.366Z,74.62
2023-05-12T12:50:38.348Z,74.51
2023-05-12T12:51:45.512Z,75.93
2023-05-12T12:52:38.337Z,75.52
2023-05-12T12:53:38.322Z,75.43
2023-05-12T12:54:38.310Z,74.92